createdAt,value
2023-05-21T00:00:55.573Z,5.43
2023-05-21T00:01:57.260Z,5.30
2023-05-21T00:02:59.411Z,5.70
2023-05-21T00:04:01.374Z,5.63
2023-05-21T00:05:03.396Z,6.25
2023-05-21T00:06:05.069Z,5.90
2023-05-21T00:07:10.149Z,5.53
2023-05-21T00:08:11.794Z,6.28
2023-05-21T00:09:13.760Z,5.07
2023-05-21T00:10:15.621Z,5.50
2023-05-21T00:11:17.485Z,5.60
2023-05-21T00:12:19.166Z,5.60
2023-05-21T00:13:20.803Z,5.75
2023-05-21T00:14:22.469Z,5.95
2023-05-21T00:15:24.109Z,5.30
2023-05-21T00:16:25.839Z,5.57
2023-05-21T00:17:28.663Z,5.75
2023-05-21T00:18:32.492Z,5.85
2023-05-21T00:19:34.230Z,6.32
2023-05-21T00:20:37.242Z,5.80
2023-05-21T00:21:39.652Z,5.65
2023-05-21T00:22:42.449Z,6.28
2023-05-21T00:23:45.539Z,5.90
2023-05-21T00:24:47.145Z,5.85
2023-05-21T00:25:50.480Z,5.65
2023-05-21T00:26:52.168Z,6.20
2023-05-21T00:27:57.481Z,5.60
2023-05-21T00:28:59.221Z,6.45
2023-05-21T00:30:00.887Z,5.57
2023-05-21T00:31:02.526Z,5.53
2023-05-21T00:32:04.603Z,5.88
2023-05-21T00:33:06.287Z,5.47
2023-05-21T00:34:07.974Z,5.70
2023-05-21T00:35:09.750Z,5.50
2023-05-21T00:36:14.578Z,5.60
2023-05-21T00:37:16.489Z,5.80
2023-05-21T00:38:18.782Z,6.05
2023-05-21T00:39:20.506Z,5.85
2023-05-21T00:40:22.280Z,5.85
2023-05-21T00:41:25.681Z,5.80
2023-05-21T00:42:27.776Z,5.68
2023-05-21T00:43:29.377Z,6.00
2023-05-21T00:44:34.468Z,6.70
2023-05-21T00:45:37.496Z,5.72
2023-05-21T00:46:39.790Z,6.00
2023-05-21T00:47:41.861Z,5.80
2023-05-21T00:48:44.321Z,5.78
2023-05-21T00:49:47.131Z,6.45
2023-05-21T00:50:49.598Z,5.80
2023-05-21T00:51:52.000Z,6.40
2023-05-21T00:52:54.495Z,6.25
2023-05-21T00:53:56.342Z,5.95
2023-05-21T00:54:57.969Z,5.38
2023-05-21T00:55:59.616Z,6.55
2023-05-21T00:57:01.251Z,6.22
2023-05-21T00:58:04.559Z,5.95
2023-05-21T00:59:06.269Z,6.22
2023-05-21T01:00:09.194Z,6.18
2023-05-21T01:01:14.135Z,5.95
2023-05-21T01:02:18.295Z,6.00
2023-05-21T01:03:20.632Z,5.75
2023-05-21T01:04:25.367Z,6.07
2023-05-21T01:05:30.224Z,5.97
2023-05-21T01:06:34.890Z,6.35
2023-05-21T01:07:39.058Z,6.97
2023-05-21T01:08:41.050Z,7.03
2023-05-21T01:09:43.071Z,7.50
2023-05-21T01:10:44.884Z,7.28
2023-05-21T01:11:47.980Z,7.03
2023-05-21T01:12:49.791Z,7.10
2023-05-21T01:13:51.469Z,7.22
2023-05-21T01:14:53.101Z,6.80
2023-05-21T01:15:54.888Z,7.30
2023-05-21T01:16:56.560Z,7.82
2023-05-21T01:17:58.322Z,7.13
2023-05-21T01:19:00.092Z,6.88
2023-05-21T01:20:01.981Z,6.32
2023-05-21T01:21:04.173Z,7.00
2023-05-21T01:22:07.431Z,6.53
2023-05-21T01:23:09.132Z,6.30
2023-05-21T01:24:10.765Z,6.00
2023-05-21T01:25:12.470Z,5.93
2023-05-21T01:26:14.119Z,5.88
2023-05-21T01:27:16.065Z,6.40
2023-05-21T01:28:17.755Z,6.10
2023-05-21T01:29:19.446Z,5.95
2023-05-21T01:30:21.465Z,5.88
2023-05-21T01:31:27.440Z,5.80
2023-05-21T01:32:53.079Z,5.95
2023-05-21T01:33:54.789Z,5.40
2023-05-21T01:35:09.893Z,6.68
2023-05-21T01:36:26.362Z,6.07
2023-05-21T01:37:48.871Z,6.30
2023-05-21T01:39:27.472Z,6.32
2023-05-21T01:40:33.482Z,5.97
2023-05-21T01:41:37.238Z,6.30
2023-05-21T01:42:39.350Z,5.40
2023-05-21T01:43:42.604Z,6.10
2023-05-21T01:44:45.164Z,5.60
2023-05-21T01:45:47.653Z,6.20
2023-05-21T01:46:49.837Z,6.10
2023-05-21T01:47:52.286Z,6.05
2023-05-21T01:48:53.958Z,6.10
2023-05-21T01:49:55.689Z,6.05
2023-05-21T01:50:58.517Z,5.85
2023-05-21T01:52:00.137Z,6.45
2023-05-21T01:53:03.761Z,5.95
2023-05-21T01:54:05.449Z,6.13
2023-05-21T01:55:07.250Z,6.10
2023-05-21T01:56:08.925Z,6.00
2023-05-21T01:57:10.616Z,6.22
2023-05-21T01:58:12.249Z,6.57
2023-05-21T01:59:13.857Z,5.90
2023-05-21T02:00:15.621Z,5.65
2023-05-21T02:01:17.302Z,6.40
2023-05-21T02:02:19.358Z,5.95
2023-05-21T02:03:21.874Z,5.93
2023-05-21T02:04:23.692Z,6.15
2023-05-21T02:05:25.536Z,6.78
2023-05-21T02:06:27.243Z,5.80
2023-05-21T02:07:29.143Z,5.90
2023-05-21T02:08:31.405Z,6.72
2023-05-21T02:09:33.156Z,6.32
2023-05-21T02:10:35.874Z,6.45
2023-05-21T02:11:37.564Z,6.85
2023-05-21T02:12:39.327Z,6.50
2023-05-21T02:13:42.881Z,6.28
2023-05-21T02:14:44.569Z,5.65
2023-05-21T02:15:47.310Z,6.18
2023-05-21T02:16:49.008Z,5.70
2023-05-21T02:17:51.526Z,5.63
2023-05-21T02:18:57.072Z,5.97
2023-05-21T02:20:07.273Z,5.95
2023-05-21T02:21:10.804Z,5.78
2023-05-21T02:22:12.455Z,5.53
2023-05-21T02:23:14.130Z,6.15
2023-05-21T02:24:15.797Z,5.90
2023-05-21T02:25:18.469Z,6.30
2023-05-21T02:26:20.115Z,5.68
2023-05-21T02:27:21.738Z,6.07
2023-05-21T02:28:24.033Z,5.70
2023-05-21T02:29:25.675Z,5.63
2023-05-21T02:30:27.294Z,5.88
2023-05-21T02:31:29.008Z,6.07
2023-05-21T02:32:32.285Z,5.88
2023-05-21T02:33:34.040Z,5.10
2023-05-21T02:34:37.399Z,5.40
2023-05-21T02:35:39.064Z,6.18
2023-05-21T02:36:41.662Z,5.95
2023-05-21T02:37:44.379Z,6.07
2023-05-21T02:38:46.738Z,5.97
2023-05-21T02:39:48.366Z,5.65
2023-05-21T02:40:53.182Z,6.50
2023-05-21T02:41:54.881Z,5.50
2023-05-21T02:42:56.536Z,5.80
2023-05-21T02:43:58.173Z,5.50
2023-05-21T02:44:59.878Z,5.88
2023-05-21T02:46:01.562Z,5.00
2023-05-21T02:47:03.240Z,5.55
2023-05-21T02:48:05.089Z,5.30
2023-05-21T02:49:06.885Z,5.28
2023-05-21T02:50:08.875Z,5.40
2023-05-21T02:51:10.525Z,6.60
2023-05-21T02:52:12.343Z,5.55
2023-05-21T02:53:14.032Z,5.47
2023-05-21T02:54:15.727Z,5.97
2023-05-21T02:55:17.391Z,5.65
2023-05-21T02:56:20.023Z,5.25
2023-05-21T02:57:21.671Z,5.93
2023-05-21T02:58:25.311Z,5.60
2023-05-21T02:59:26.954Z,6.35
2023-05-21T03:00:28.618Z,5.70
2023-05-21T03:01:30.299Z,5.70
2023-05-21T03:02:32.431Z,5.75
2023-05-21T03:03:34.238Z,5.50
2023-05-21T03:04:39.202Z,5.75
2023-05-21T03:05:41.374Z,6.15
2023-05-21T03:06:43.277Z,5.60
2023-05-21T03:07:44.907Z,5.65
2023-05-21T03:08:46.549Z,5.03
2023-05-21T03:09:48.283Z,5.03
2023-05-21T03:10:50.137Z,6.32
2023-05-21T03:11:51.797Z,5.78
2023-05-21T03:12:54.893Z,5.53
2023-05-21T03:13:56.545Z,5.80
2023-05-21T03:14:58.188Z,5.60
2023-05-21T03:15:59.863Z,6.22
2023-05-21T03:17:03.510Z,5.38
2023-05-21T03:18:05.237Z,5.72
2023-05-21T03:19:06.928Z,5.80
2023-05-21T03:20:09.526Z,5.72
2023-05-21T03:21:13.379Z,5.25
2023-05-21T03:22:15.084Z,5.65
2023-05-21T03:23:16.956Z,5.88
2023-05-21T03:24:18.778Z,5.80
2023-05-21T03:25:21.647Z,5.53
2023-05-21T03:26:24.104Z,5.53
2023-05-21T03:27:26.231Z,5.47
2023-05-21T03:28:27.860Z,5.53
2023-05-21T03:29:29.470Z,5.33
2023-05-21T03:30:31.201Z,5.15
2023-05-21T03:31:33.006Z,5.30
2023-05-21T03:32:37.953Z,5.05
2023-05-21T03:33:39.752Z,5.00
2023-05-21T03:34:41.429Z,5.45
2023-05-21T03:35:43.054Z,5.30
2023-05-21T03:36:44.745Z,5.25
2023-05-21T03:37:46.615Z,5.30
2023-05-21T03:38:48.306Z,5.60
2023-05-21T03:39:49.951Z,5.30
2023-05-21T03:40:51.583Z,4.90
2023-05-21T03:41:53.205Z,4.75
2023-05-21T03:42:54.900Z,5.10
2023-05-21T03:43:56.522Z,4.50
2023-05-21T03:44:58.190Z,4.93
2023-05-21T03:45:59.912Z,4.97
2023-05-21T03:47:01.556Z,6.03
2023-05-21T03:48:03.400Z,5.40
2023-05-21T03:49:05.161Z,4.97
2023-05-21T03:50:07.761Z,4.83
2023-05-21T03:51:09.671Z,5.32
2023-05-21T03:52:11.373Z,4.75
2023-05-21T03:53:13.913Z,4.88
2023-05-21T03:54:15.595Z,5.10
2023-05-21T03:55:17.294Z,4.97
2023-05-21T03:56:18.971Z,4.55
2023-05-21T03:57:20.587Z,4.28
2023-05-21T03:58:22.717Z,4.75
2023-05-21T03:59:24.385Z,4.63
2023-05-21T04:00:26.038Z,4.90
2023-05-21T04:01:28.491Z,5.10
2023-05-21T04:02:30.602Z,4.53
2023-05-21T04:03:36.723Z,4.88
2023-05-21T04:04:39.667Z,4.93
2023-05-21T04:05:44.638Z,5.40
2023-05-21T04:06:46.564Z,5.05
2023-05-21T04:07:48.609Z,5.00
2023-05-21T04:08:50.403Z,4.90
2023-05-21T04:09:52.074Z,5.47
2023-05-21T04:10:53.952Z,5.33
2023-05-21T04:11:56.036Z,4.72
2023-05-21T04:12:57.673Z,4.88
2023-05-21T04:13:59.349Z,4.35
2023-05-21T04:15:02.941Z,4.72
2023-05-21T04:16:04.747Z,4.82
2023-05-21T04:17:06.724Z,5.50
2023-05-21T04:18:08.482Z,5.35
2023-05-21T04:19:10.226Z,5.10
2023-05-21T04:20:13.916Z,4.70
2023-05-21T04:21:16.357Z,4.37
2023-05-21T04:22:18.064Z,4.53
2023-05-21T04:23:19.736Z,4.53
2023-05-21T04:24:22.605Z,4.78
2023-05-21T04:25:25.553Z,4.30
2023-05-21T04:26:28.179Z,4.82
2023-05-21T04:27:29.926Z,4.50
2023-05-21T04:28:31.560Z,4.95
2023-05-21T04:29:33.228Z,4.43
2023-05-21T04:30:37.730Z,4.40
2023-05-21T04:31:39.555Z,4.33
2023-05-21T04:32:41.388Z,4.75
2023-05-21T04:33:46.106Z,4.13
2023-05-21T04:34:47.926Z,4.75
2023-05-21T04:35:50.790Z,4.70
2023-05-21T04:36:52.447Z,4.60
2023-05-21T04:37:55.081Z,4.43
2023-05-21T04:38:56.797Z,4.50
2023-05-21T04:39:58.537Z,4.30
2023-05-21T04:41:03.833Z,4.78
2023-05-21T04:42:05.701Z,4.17
2023-05-21T04:43:08.271Z,4.20
2023-05-21T04:44:10.293Z,5.03
2023-05-21T04:45:11.980Z,4.35
2023-05-21T04:46:14.032Z,4.60
2023-05-21T04:47:15.805Z,3.88
2023-05-21T04:48:17.946Z,4.72
2023-05-21T04:49:21.954Z,4.47
2023-05-21T04:50:23.625Z,4.70
2023-05-21T04:51:26.780Z,4.60
2023-05-21T04:52:28.470Z,4.10
2023-05-21T04:53:31.105Z,4.28
2023-05-21T04:54:32.828Z,4.43
2023-05-21T04:55:39.642Z,3.90
2023-05-21T04:56:41.301Z,4.45
2023-05-21T04:57:42.944Z,4.20
2023-05-21T04:58:45.752Z,4.60
2023-05-21T04:59:47.871Z,4.43
2023-05-21T05:00:50.960Z,4.88
2023-05-21T05:01:52.853Z,4.22
2023-05-21T05:02:54.625Z,4.30
2023-05-21T05:03:56.660Z,4.28
2023-05-21T05:04:59.901Z,4.00
2023-05-21T05:06:04.401Z,4.40
2023-05-21T05:07:06.059Z,4.55
2023-05-21T05:08:07.771Z,4.55
2023-05-21T05:09:09.451Z,4.00
2023-05-21T05:10:11.117Z,4.53
2023-05-21T05:11:13.502Z,4.10
2023-05-21T05:12:15.186Z,4.65
2023-05-21T05:13:16.853Z,4.43
2023-05-21T05:14:18.905Z,4.55
2023-05-21T05:15:20.651Z,4.05
2023-05-21T05:16:27.997Z,4.05
2023-05-21T05:17:29.717Z,4.50
2023-05-21T05:18:31.635Z,4.50
2023-05-21T05:19:35.170Z,3.95
2023-05-21T05:20:36.906Z,4.53
2023-05-21T05:21:38.726Z,4.00
2023-05-21T05:22:40.369Z,4.05
2023-05-21T05:23:42.083Z,3.60
2023-05-21T05:24:43.741Z,4.20
2023-05-21T05:25:45.689Z,3.95
2023-05-21T05:26:47.341Z,4.80
2023-05-21T05:27:49.003Z,4.00
2023-05-21T05:28:50.849Z,3.70
2023-05-21T05:29:52.491Z,3.92
2023-05-21T05:30:54.283Z,4.53
2023-05-21T05:31:55.941Z,4.18
2023-05-21T05:32:57.668Z,4.00
2023-05-21T05:33:59.425Z,4.03
2023-05-21T05:35:02.433Z,4.50
2023-05-21T05:36:04.656Z,4.20
2023-05-21T05:37:06.322Z,4.28
2023-05-21T05:38:09.069Z,4.43
2023-05-21T05:39:10.768Z,3.97
2023-05-21T05:40:12.494Z,4.22
2023-05-21T05:41:14.185Z,4.43
2023-05-21T05:42:15.898Z,4.30
2023-05-21T05:43:17.530Z,4.10
2023-05-21T05:44:19.168Z,4.13
2023-05-21T05:45:20.999Z,4.32
2023-05-21T05:46:22.738Z,4.15
2023-05-21T05:47:24.618Z,4.43
2023-05-21T05:48:26.369Z,3.80
2023-05-21T05:49:28.006Z,4.22
2023-05-21T05:50:29.849Z,4.47
2023-05-21T05:51:31.954Z,4.32
2023-05-21T05:52:33.651Z,4.57
2023-05-21T05:53:35.290Z,4.30
2023-05-21T05:54:36.964Z,3.87
2023-05-21T05:55:39.414Z,4.70
2023-05-21T05:56:41.141Z,4.43
2023-05-21T05:57:44.991Z,4.93
2023-05-21T05:58:46.896Z,3.80
2023-05-21T05:59:48.594Z,4.18
2023-05-21T06:00:50.266Z,3.80
2023-05-21T06:01:51.915Z,4.10
2023-05-21T06:02:53.711Z,3.70
2023-05-21T06:03:57.405Z,3.95
2023-05-21T06:04:59.177Z,3.40
2023-05-21T06:06:00.928Z,4.53
2023-05-21T06:07:02.714Z,4.03
2023-05-21T06:08:04.667Z,4.00
2023-05-21T06:09:06.475Z,3.97
2023-05-21T06:10:08.529Z,3.88
2023-05-21T06:11:11.018Z,3.85
2023-05-21T06:12:16.024Z,4.05
2023-05-21T06:13:17.769Z,4.10
2023-05-21T06:14:19.414Z,4.30
2023-05-21T06:15:21.130Z,3.57
2023-05-21T06:16:22.885Z,3.63
2023-05-21T06:17:24.654Z,3.80
2023-05-21T06:18:26.417Z,3.65
2023-05-21T06:19:28.111Z,4.32
2023-05-21T06:20:30.036Z,3.70
2023-05-21T06:21:31.666Z,3.70
2023-05-21T06:22:33.624Z,3.80
2023-05-21T06:23:37.756Z,3.42
2023-05-21T06:24:39.439Z,3.72
2023-05-21T06:25:41.118Z,3.67
2023-05-21T06:26:42.772Z,5.15
2023-05-21T06:27:44.506Z,4.82
2023-05-21T06:28:46.222Z,3.95
2023-05-21T06:29:47.869Z,4.18
2023-05-21T06:30:49.504Z,4.22
2023-05-21T06:31:51.197Z,3.10
2023-05-21T06:32:53.023Z,3.63
2023-05-21T06:33:54.875Z,3.50
2023-05-21T06:34:56.717Z,3.83
2023-05-21T06:35:58.389Z,3.93
2023-05-21T06:37:00.018Z,3.83
2023-05-21T06:38:01.663Z,3.60
2023-05-21T06:39:03.572Z,3.97
2023-05-21T06:40:05.977Z,3.20
2023-05-21T06:41:07.608Z,3.67
2023-05-21T06:42:09.277Z,3.40
2023-05-21T06:43:10.956Z,3.60
2023-05-21T06:44:12.587Z,3.45
2023-05-21T06:45:14.361Z,3.58
2023-05-21T06:46:16.508Z,3.53
2023-05-21T06:47:18.143Z,3.67
2023-05-21T06:48:19.779Z,3.88
2023-05-21T06:49:21.456Z,3.80
2023-05-21T06:50:24.130Z,3.90
2023-05-21T06:51:25.928Z,3.30
2023-05-21T06:52:27.635Z,3.80
2023-05-21T06:53:29.356Z,3.90
2023-05-21T06:54:31.035Z,3.83
2023-05-21T06:55:32.760Z,4.05
2023-05-21T06:56:34.469Z,3.37
2023-05-21T06:57:38.154Z,3.45
2023-05-21T06:58:39.830Z,4.00
2023-05-21T06:59:41.558Z,3.58
2023-05-21T07:00:43.203Z,3.38
2023-05-21T07:01:45.079Z,3.40
2023-05-21T07:02:46.979Z,3.35
2023-05-21T07:03:49.141Z,3.60
2023-05-21T07:04:51.988Z,3.45
2023-05-21T07:05:53.878Z,3.65
2023-05-21T07:06:55.595Z,3.87
2023-05-21T07:07:57.235Z,3.85
2023-05-21T07:08:58.968Z,4.10
2023-05-21T07:10:00.693Z,3.80
2023-05-21T07:11:02.465Z,3.90
2023-05-21T07:12:05.715Z,3.90
2023-05-21T07:13:07.435Z,3.63
2023-05-21T07:14:09.081Z,3.50
2023-05-21T07:15:11.145Z,3.65
2023-05-21T07:16:12.877Z,3.70
2023-05-21T07:17:14.635Z,3.67
2023-05-21T07:18:16.896Z,3.70
2023-05-21T07:19:18.633Z,3.53
2023-05-21T07:20:20.394Z,3.88
2023-05-21T07:21:22.163Z,3.67
2023-05-21T07:22:25.077Z,3.78
2023-05-21T07:23:28.308Z,3.42
2023-05-21T07:24:29.948Z,3.30
2023-05-21T07:25:31.705Z,3.75
2023-05-21T07:26:33.408Z,3.33
2023-05-21T07:27:35.108Z,4.00
2023-05-21T07:28:36.972Z,3.65
2023-05-21T07:29:38.688Z,4.20
2023-05-21T07:30:40.328Z,3.45
2023-05-21T07:31:42.006Z,3.20
2023-05-21T07:32:43.749Z,3.88
2023-05-21T07:33:45.508Z,4.00
2023-05-21T07:34:47.514Z,4.00
2023-05-21T07:35:49.179Z,3.58
2023-05-21T07:36:50.952Z,3.97
2023-05-21T07:37:52.589Z,3.60
2023-05-21T07:38:54.823Z,4.10
2023-05-21T07:39:57.415Z,4.20
2023-05-21T07:40:59.105Z,4.15
2023-05-21T07:42:00.840Z,3.67
2023-05-21T07:43:02.503Z,3.40
2023-05-21T07:44:04.268Z,3.75
2023-05-21T07:45:06.895Z,3.63
2023-05-21T07:46:08.567Z,3.88
2023-05-21T07:47:10.288Z,3.60
2023-05-21T07:48:11.933Z,3.33
2023-05-21T07:49:16.865Z,3.83
2023-05-21T07:50:18.810Z,3.78
2023-05-21T07:51:20.454Z,4.18
2023-05-21T07:52:22.110Z,3.90
2023-05-21T07:53:23.794Z,3.60
2023-05-21T07:54:25.465Z,3.75
2023-05-21T07:55:27.137Z,3.80
2023-05-21T07:56:29.584Z,3.60
2023-05-21T07:57:31.231Z,4.10
2023-05-21T07:58:35.241Z,3.27
2023-05-21T07:59:36.961Z,3.72
2023-05-21T08:00:45.291Z,3.55
2023-05-21T08:01:47.012Z,4.18
2023-05-21T08:02:48.720Z,3.92
2023-05-21T08:03:50.688Z,3.70
2023-05-21T08:04:52.686Z,3.75
2023-05-21T08:05:54.631Z,3.85
2023-05-21T08:06:56.628Z,3.95
2023-05-21T08:07:58.293Z,3.58
2023-05-21T08:09:01.858Z,3.90
2023-05-21T08:10:04.069Z,4.05
2023-05-21T08:11:06.168Z,4.07
2023-05-21T08:12:08.156Z,3.90
2023-05-21T08:13:11.726Z,4.07
2023-05-21T08:14:13.367Z,3.80
2023-05-21T08:15:15.148Z,3.35
2023-05-21T08:16:17.305Z,3.45
2023-05-21T08:17:19.004Z,4.30
2023-05-21T08:18:20.756Z,4.10
2023-05-21T08:19:22.455Z,3.60
2023-05-21T08:20:24.216Z,4.18
2023-05-21T08:21:26.314Z,3.92
2023-05-21T08:22:27.972Z,3.67
2023-05-21T08:23:29.757Z,3.97
2023-05-21T08:24:31.384Z,3.97
2023-05-21T08:25:33.165Z,3.50
2023-05-21T08:26:35.692Z,4.10
2023-05-21T08:27:37.342Z,3.65
2023-05-21T08:28:39.189Z,4.00
2023-05-21T08:29:41.257Z,3.80
2023-05-21T08:30:42.904Z,3.97
2023-05-21T08:31:44.601Z,3.95
2023-05-21T08:32:46.929Z,3.88
2023-05-21T08:33:52.686Z,4.10
2023-05-21T08:34:54.559Z,4.03
2023-05-21T08:35:56.242Z,3.55
2023-05-21T08:36:57.903Z,4.32
2023-05-21T08:37:59.703Z,3.97
2023-05-21T08:39:01.594Z,3.90
2023-05-21T08:40:04.396Z,3.70
2023-05-21T08:41:07.088Z,4.43
2023-05-21T08:42:47.490Z,4.43
2023-05-21T08:43:50.396Z,3.83
2023-05-21T08:44:53.219Z,3.70
2023-05-21T08:45:55.908Z,3.45
2023-05-21T08:46:57.602Z,4.35
2023-05-21T08:47:59.400Z,4.10
2023-05-21T08:49:02.962Z,4.90
2023-05-21T08:50:05.206Z,4.32
2023-05-21T08:51:07.238Z,3.80
2023-05-21T08:52:08.888Z,3.45
2023-05-21T08:53:23.363Z,3.95
2023-05-21T08:54:29.730Z,4.00
2023-05-21T08:55:31.365Z,3.83
2023-05-21T08:56:33.073Z,5.03
2023-05-21T08:57:34.803Z,4.60
2023-05-21T08:58:37.066Z,3.80
2023-05-21T08:59:43.355Z,4.90
2023-05-21T09:00:45.038Z,4.00
2023-05-21T09:01:47.128Z,3.73
2023-05-21T09:02:48.899Z,4.35
2023-05-21T09:03:50.789Z,3.72
2023-05-21T09:04:59.096Z,4.07
2023-05-21T09:06:00.805Z,4.00
2023-05-21T09:07:02.892Z,4.13
2023-05-21T09:08:15.431Z,3.75
2023-05-21T09:09:26.388Z,4.00
2023-05-21T09:10:34.079Z,4.00
2023-05-21T09:11:35.961Z,4.35
2023-05-21T09:12:37.766Z,4.13
2023-05-21T09:13:39.454Z,4.10
2023-05-21T09:14:41.111Z,3.97
2023-05-21T09:15:42.991Z,3.70
2023-05-21T09:16:48.486Z,4.68
2023-05-21T09:17:50.411Z,4.15
2023-05-21T09:18:52.112Z,4.60
2023-05-21T09:20:13.404Z,4.13
2023-05-21T09:21:31.459Z,4.85
2023-05-21T09:22:33.196Z,4.35
2023-05-21T09:23:34.877Z,4.33
2023-05-21T09:24:36.661Z,3.85
2023-05-21T09:25:39.129Z,4.60
2023-05-21T09:26:44.304Z,4.68
2023-05-21T09:27:46.081Z,4.00
2023-05-21T09:28:47.799Z,3.60
2023-05-21T09:29:49.403Z,4.32
2023-05-21T09:30:54.391Z,4.20
2023-05-21T09:31:56.179Z,4.32
2023-05-21T09:32:59.105Z,4.78
2023-05-21T09:34:01.018Z,3.83
2023-05-21T09:35:14.837Z,4.07
2023-05-21T09:36:20.180Z,4.47
2023-05-21T09:37:27.499Z,4.13
2023-05-21T09:38:30.342Z,4.30
2023-05-21T09:39:32.126Z,4.07
2023-05-21T09:40:34.760Z,5.10
2023-05-21T09:41:37.015Z,4.57
2023-05-21T09:42:39.971Z,4.28
2023-05-21T09:43:44.929Z,4.60
2023-05-21T09:44:47.432Z,3.97
2023-05-21T09:45:55.822Z,4.07
2023-05-21T09:47:01.045Z,4.20
2023-05-21T09:48:02.706Z,3.67
2023-05-21T09:49:04.434Z,4.40
2023-05-21T09:50:06.886Z,3.78
2023-05-21T09:51:12.554Z,4.50
2023-05-21T09:52:14.159Z,3.70
2023-05-21T09:53:15.781Z,4.65
2023-05-21T09:54:17.408Z,3.90
2023-05-21T09:55:22.353Z,4.20
2023-05-21T09:56:29.503Z,3.72
2023-05-21T09:57:31.219Z,3.90
2023-05-21T09:58:33.048Z,3.90
2023-05-21T09:59:38.695Z,4.13
2023-05-21T10:00:40.778Z,4.15
2023-05-21T10:01:44.215Z,3.95
2023-05-21T10:02:47.416Z,3.95
2023-05-21T10:03:59.148Z,3.80
2023-05-21T10:05:00.958Z,4.00
2023-05-21T10:06:02.616Z,4.60
2023-05-21T10:07:04.356Z,4.28
2023-05-21T10:08:06.089Z,3.83
2023-05-21T10:09:10.666Z,3.92
2023-05-21T10:10:14.197Z,4.20
2023-05-21T10:11:16.042Z,3.97
2023-05-21T10:12:18.082Z,4.28
2023-05-21T10:13:21.234Z,4.03
2023-05-21T10:14:23.782Z,4.00
2023-05-21T10:15:25.982Z,4.32
2023-05-21T10:16:28.262Z,4.23
2023-05-21T10:17:30.658Z,4.70
2023-05-21T10:18:32.632Z,4.60
2023-05-21T10:19:36.430Z,4.43
2023-05-21T10:20:38.247Z,4.32
2023-05-21T10:21:40.195Z,3.80
2023-05-21T10:22:41.844Z,4.25
2023-05-21T10:23:43.545Z,3.80
2023-05-21T10:24:45.524Z,3.75
2023-05-21T10:25:47.323Z,4.35
2023-05-21T10:26:48.954Z,4.20
2023-05-21T10:27:50.624Z,4.22
2023-05-21T10:28:53.079Z,3.92
2023-05-21T10:29:54.748Z,4.07
2023-05-21T10:30:56.451Z,3.90
2023-05-21T10:31:58.125Z,4.35
2023-05-21T10:33:00.118Z,4.22
2023-05-21T10:34:01.981Z,4.55
2023-05-21T10:35:03.932Z,4.30
2023-05-21T10:36:05.927Z,3.72
2023-05-21T10:37:08.622Z,4.40
2023-05-21T10:38:10.535Z,4.20
2023-05-21T10:39:12.967Z,3.90
2023-05-21T10:40:14.657Z,4.00
2023-05-21T10:41:16.342Z,3.63
2023-05-21T10:42:24.077Z,3.97
2023-05-21T10:43:57.925Z,3.53
2023-05-21T10:45:32.601Z,3.50
2023-05-21T10:46:59.111Z,3.30
2023-05-21T10:48:21.818Z,3.42
2023-05-21T10:49:55.754Z,3.37
2023-05-21T10:51:01.776Z,3.22
2023-05-21T10:52:06.416Z,3.78
2023-05-21T10:53:22.080Z,3.80
2023-05-21T10:54:33.839Z,3.85
2023-05-21T10:55:38.034Z,3.45
2023-05-21T10:56:46.647Z,4.00
2023-05-21T10:58:00.485Z,4.15
2023-05-21T10:59:12.570Z,4.28
2023-05-21T11:00:15.446Z,3.90
2023-05-21T11:01:19.499Z,3.37
2023-05-21T11:02:21.373Z,3.33
2023-05-21T11:03:23.242Z,3.65
2023-05-21T11:04:28.069Z,3.75
2023-05-21T11:05:51.137Z,3.92
2023-05-21T11:06:52.873Z,3.22
2023-05-21T11:07:57.224Z,3.70
2023-05-21T11:09:14.649Z,3.75
2023-05-21T11:10:35.119Z,3.72
2023-05-21T11:11:48.726Z,4.13
2023-05-21T11:13:12.843Z,4.07
2023-05-21T11:14:35.994Z,3.50
2023-05-21T11:15:59.818Z,3.33
2023-05-21T11:17:14.097Z,3.10
2023-05-21T11:18:16.044Z,3.78
2023-05-21T11:19:17.858Z,4.05
2023-05-21T11:20:21.015Z,3.60
2023-05-21T11:21:22.982Z,3.92
2023-05-21T11:22:25.917Z,4.00
2023-05-21T11:23:53.555Z,4.47
2023-05-21T11:24:56.484Z,3.37
2023-05-21T11:26:01.985Z,3.75
2023-05-21T11:27:05.068Z,3.67
2023-05-21T11:28:09.484Z,3.83
2023-05-21T11:29:11.290Z,3.50
2023-05-21T11:30:17.069Z,3.30
2023-05-21T11:31:27.124Z,3.75
2023-05-21T11:32:29.928Z,3.58
2023-05-21T11:33:31.675Z,3.67
2023-05-21T11:34:42.412Z,3.78
2023-05-21T11:35:50.270Z,3.17
2023-05-21T11:36:52.991Z,3.70
2023-05-21T11:37:54.733Z,4.18
2023-05-21T11:39:21.844Z,4.32
2023-05-21T11:40:26.302Z,3.17
2023-05-21T11:41:28.029Z,3.40
2023-05-21T11:42:31.723Z,3.88
2023-05-21T11:43:33.346Z,3.70
2023-05-21T11:44:42.130Z,3.58
2023-05-21T11:45:47.310Z,3.83
2023-05-21T11:46:49.117Z,3.90
2023-05-21T11:47:51.600Z,3.78
2023-05-21T11:48:53.297Z,3.30
2023-05-21T11:49:56.919Z,4.03
2023-05-21T11:50:58.602Z,3.28
2023-05-21T11:52:00.731Z,3.70
2023-05-21T11:53:02.510Z,3.45
2023-05-21T11:54:04.236Z,3.45
2023-05-21T11:55:07.406Z,3.90
2023-05-21T11:56:10.172Z,3.70
2023-05-21T11:57:12.548Z,4.10
2023-05-21T11:58:15.074Z,4.20
2023-05-21T11:59:18.636Z,3.60
2023-05-21T12:00:21.787Z,3.50
2023-05-21T12:01:24.379Z,3.65
2023-05-21T12:02:32.569Z,4.10
2023-05-21T12:03:37.297Z,3.65
2023-05-21T12:04:39.037Z,3.58
2023-05-21T12:05:47.150Z,3.90
2023-05-21T12:06:50.845Z,4.13
2023-05-21T12:07:54.600Z,3.60
2023-05-21T12:08:58.478Z,3.67
2023-05-21T12:10:00.342Z,3.40
2023-05-21T12:11:02.800Z,3.78
2023-05-21T12:12:05.995Z,4.50
2023-05-21T12:13:07.641Z,3.88
2023-05-21T12:14:10.578Z,3.63
2023-05-21T12:15:13.592Z,3.67
2023-05-21T12:16:15.434Z,3.75
2023-05-21T12:17:31.715Z,3.92
2023-05-21T12:18:33.420Z,3.80
2023-05-21T12:19:35.201Z,3.95
2023-05-21T12:20:37.313Z,3.60
2023-05-21T12:21:39.132Z,3.75
2023-05-21T12:22:42.558Z,3.80
2023-05-21T12:23:44.222Z,3.80
2023-05-21T12:24:46.208Z,4.03
2023-05-21T12:25:47.845Z,3.40
2023-05-21T12:26:50.098Z,3.35
2023-05-21T12:27:57.970Z,3.75
2023-05-21T12:28:59.886Z,3.50
2023-05-21T12:30:01.570Z,3.53
2023-05-21T12:31:03.183Z,4.47
2023-05-21T12:32:09.263Z,3.50
2023-05-21T12:33:12.237Z,3.78
2023-05-21T12:34:15.564Z,4.10
2023-05-21T12:35:24.061Z,3.35
2023-05-21T12:36:27.759Z,3.85
2023-05-21T12:37:33.990Z,3.25
2023-05-21T12:38:36.637Z,3.92
2023-05-21T12:39:48.338Z,3.63
2023-05-21T12:40:49.969Z,3.53
2023-05-21T12:41:54.449Z,3.80
2023-05-21T12:42:56.114Z,3.72
2023-05-21T12:43:57.750Z,3.67
2023-05-21T12:44:59.507Z,3.78
2023-05-21T12:46:01.329Z,4.15
2023-05-21T12:47:03.850Z,4.05
2023-05-21T12:48:05.649Z,3.85
2023-05-21T12:49:07.344Z,3.70
2023-05-21T12:50:13.962Z,3.30
2023-05-21T12:51:15.927Z,3.53
2023-05-21T12:52:19.197Z,3.63
2023-05-21T12:53:20.872Z,3.95
2023-05-21T12:54:30.281Z,3.88
2023-05-21T12:55:31.969Z,4.30
2023-05-21T12:56:44.399Z,3.63
2023-05-21T12:57:46.611Z,3.90
2023-05-21T12:58:49.952Z,3.67
2023-05-21T12:59:58.482Z,4.00
2023-05-21T13:01:00.961Z,3.80
2023-05-21T13:02:03.683Z,4.00
2023-05-21T13:03:06.732Z,4.00
2023-05-21T13:04:08.832Z,4.13
2023-05-21T13:05:11.556Z,3.80
2023-05-21T13:06:13.268Z,3.38
2023-05-21T13:07:16.694Z,4.43
2023-05-21T13:08:18.378Z,4.10
2023-05-21T13:09:20.041Z,3.95
2023-05-21T13:10:21.771Z,3.70
2023-05-21T13:11:23.599Z,3.67
2023-05-21T13:12:26.865Z,3.83
2023-05-21T13:13:28.503Z,3.80
2023-05-21T13:14:30.103Z,3.33
2023-05-21T13:15:31.845Z,4.00
2023-05-21T13:16:33.872Z,4.43
2023-05-21T13:17:35.643Z,3.70
2023-05-21T13:18:37.377Z,4.10
2023-05-21T13:19:39.053Z,3.72
2023-05-21T13:20:40.737Z,4.28
2023-05-21T13:21:42.375Z,3.90
2023-05-21T13:22:50.128Z,3.90
2023-05-21T13:23:51.836Z,3.92
2023-05-21T13:24:53.510Z,3.92
2023-05-21T13:25:55.172Z,4.30
2023-05-21T13:26:56.896Z,3.85
2023-05-21T13:28:05.209Z,4.00
2023-05-21T13:29:06.846Z,4.05
2023-05-21T13:30:09.546Z,3.58
2023-05-21T13:31:12.433Z,4.10
2023-05-21T13:32:14.104Z,5.50
2023-05-21T13:33:16.153Z,4.53
2023-05-21T13:34:17.926Z,3.88
2023-05-21T13:35:19.941Z,4.00
2023-05-21T13:36:21.567Z,3.88
2023-05-21T13:37:23.221Z,4.45
2023-05-21T13:38:25.005Z,4.65
2023-05-21T13:39:27.777Z,3.70
2023-05-21T13:40:29.494Z,3.72
2023-05-21T13:41:31.351Z,4.55
2023-05-21T13:42:33.734Z,3.90
2023-05-21T13:43:35.490Z,4.13
2023-05-21T13:44:37.146Z,4.20
2023-05-21T13:45:39.031Z,4.00
2023-05-21T13:46:40.885Z,3.90
2023-05-21T13:47:43.269Z,4.15
2023-05-21T13:48:45.002Z,4.45
2023-05-21T13:49:46.671Z,4.35
2023-05-21T13:50:48.452Z,3.97
2023-05-21T13:51:50.068Z,3.90
2023-05-21T13:52:51.865Z,4.53
2023-05-21T13:53:56.185Z,4.23
2023-05-21T13:54:58.525Z,4.57
2023-05-21T13:56:00.459Z,4.60
2023-05-21T13:57:02.222Z,4.28
2023-05-21T13:58:03.876Z,4.40
2023-05-21T13:59:05.831Z,4.10
2023-05-21T14:00:09.338Z,4.38
2023-05-21T14:01:12.060Z,4.03
2023-05-21T14:02:13.890Z,4.18